EDT,Max TemperatureF,Mean TemperatureF,Min TemperatureF,Max Dew PointF,MeanDew PointF,Min DewpointF,Max Humidity, Mean Humidity, Min Humidity, Max Sea Level PressureIn, Mean Sea Level PressureIn, Min Sea Level PressureIn, Max VisibilityMiles, Mean VisibilityMiles, Min VisibilityMiles, Max Wind SpeedMPH, Mean Wind SpeedMPH, Max Gust SpeedMPH,PrecipitationIn, CloudCover, Events, WindDirDegrees
2012-10-1,71,56,40,56,45,40,100,74,47,29.97,29.92,29.81,10,4,0,10,3,14,0.01,3,Fog-Rain,39
2012-10-2,80,71,62,69,63,55,93,81,69,29.89,29.83,29.78,10,10,7,15,4,20,0.40,5,Rain,123
2012-10-3,75,70,64,65,63,60,93,77,60,30.17,30.07,29.89,10,10,9,8,2,13,0.00,6,,203
2012-10-4,75,66,57,63,57,49,100,71,41,30.24,30.19,30.16,10,9,6,12,3,18,0.00,4,,213
2012-10-5,77,66,55,56,54,52,93,68,43,30.19,30.09,29.92,10,10,9,12,4,17,0.00,0,,203
2012-10-6,66,54,42,54,45,33,93,65,37,30.13,30.00,29.84,10,9,2,13,4,22,0.05,5,Rain,268
2012-10-7,53,46,38,43,41,38,100,82,63,30.22,30.13,30.08,10,10,6,8,2,15,0.03,6,Rain,293
2012-10-8,48,42,36,42,39,35,100,86,71,30.28,30.24,30.20,10,7,0,10,1,16,0.01,4,Fog-Rain,192
2012-10-9,58,49,40,42,41,39,100,78,55,30.23,30.15,30.05,10,10,10,8,2,12,0.00,4,,185
2012-10-10,58,49,40,47,41,30,92,71,50,30.21,30.03,29.96,10,10,10,14,5,21,0.01,5,,235
2012-10-11,59,46,32,35,30,27,92,63,33,30.35,30.26,30.19,10,10,9,9,2,14,0.00,0,,265
2012-10-12,67,51,34,39,34,29,92,60,28,30.43,30.32,30.21,10,10,10,15,2,21,0.00,3,,348
2012-10-13,84,60,37,44,36,27,76,49,22,30.43,30.30,30.11,10,10,10,9,4,14,0.00,0,,158
2012-10-14,78,69,59,55,50,44,64,52,40,30.12,29.99,29.77,10,10,10,18,6,25,0.00,3,,197
2012-10-15,72,61,50,58,51,45,86,70,53,29.93,29.82,29.70,10,9,2,15,6,26,0.17,7,Rain,246
2012-10-16,60,51,42,45,40,37,86,64,42,30.03,29.95,29.91,10,10,10,9,3,15,0.00,5,,276
2012-10-17,74,57,39,45,40,34,89,60,31,29.95,29.88,29.78,10,10,2,13,4,17,0.00,0,,147
2012-10-18,72,60,48,54,48,39,93,66,38,29.85,29.78,29.65,10,6,0,17,5,28,0.51,5,Fog-Rain,154
2012-10-19,68,58,47,47,41,32,93,60,26,29.81,29.72,29.62,10,8,2,16,5,26,0.03,5,Rain,200
2012-10-20,56,51,46,45,42,38,86,70,54,30.00,29.84,29.76,10,10,10,15,5,26,0.02,7,,211
2012-10-21,61,51,40,43,40,36,96,68,39,30.18,30.13,30.00,10,10,7,9,3,14,0.00,2,,203
2012-10-22,74,56,37,50,43,36,100,69,38,30.24,30.18,30.12,10,10,8,8,2,13,0.00,1,,193
2012-10-23,78,67,55,52,51,50,83,60,37,30.13,30.09,30.05,10,10,10,13,4,20,0.00,2,,209
2012-10-24,78,68,57,53,51,49,80,60,40,30.19,30.12,30.08,10,10,10,10,2,16,0.00,3,,191
2012-10-25,85,68,51,51,48,45,89,58,26,30.14,30.08,30.01,10,10,10,13,2,16,0.00,0,,166
2012-10-26,80,69,57,55,51,49,80,59,37,30.11,30.05,29.98,10,10,10,12,5,15,0.00,2,,122
2012-10-27,58,53,47,52,49,45,96,88,80,30.01,29.98,29.94,10,8,3,13,5,17,0.07,6,Rain,352
2012-10-28,48,46,43,46,44,42,100,96,92,29.98,29.88,29.82,10,4,2,14,8,17,0.27,8,Rain,351
2012-10-29,43,39,34,42,39,33,100,91,82,29.82,29.58,29.17,10,5,2,16,9,28,2.57,8,Rain-Snow,322
2012-10-30,35,34,33,34,32,32,100,96,92,29.46,29.19,29.06,9,3,1,16,9,24,0.93,8,Rain-Snow,205
2012-10-31,40,37,34,37,35,33,100,93,85,29.73,29.61,29.47,10,6,2,13,8,18,0.76,8,Rain-Snow,211